createdAt,value
2019-02-28T00:00:41.746Z,33.20
2019-02-28T00:05:45.413Z,33.20
2019-02-28T00:10:49.595Z,33.20
2019-02-28T00:15:53.229Z,33.20
2019-02-28T00:20:56.900Z,33.20
2019-02-28T00:26:00.568Z,33.20
2019-02-28T00:31:04.336Z,33.20
2019-02-28T00:36:07.984Z,33.30
2019-02-28T00:41:11.964Z,33.30
2019-02-28T00:46:18.214Z,33.30
2019-02-28T00:51:21.871Z,33.30
2019-02-28T00:56:28.653Z,33.40
2019-02-28T01:01:32.308Z,33.40
2019-02-28T01:06:37.244Z,33.40
2019-02-28T01:11:40.937Z,33.40
2019-02-28T01:16:44.562Z,33.50
2019-02-28T01:21:48.207Z,33.50
2019-02-28T01:26:51.931Z,33.50
2019-02-28T01:31:55.651Z,33.50
2019-02-28T01:36:59.304Z,33.50
2019-02-28T01:42:02.957Z,33.50
2019-02-28T01:47:06.635Z,33.50
2019-02-28T01:52:10.817Z,33.50
2019-02-28T01:57:14.919Z,33.50
2019-02-28T02:02:18.599Z,33.50
2019-02-28T02:07:22.375Z,33.50
2019-02-28T02:12:26.044Z,33.50
2019-02-28T02:17:32.262Z,33.50
2019-02-28T02:22:35.067Z,33.50
2019-02-28T02:27:38.701Z,33.50
2019-02-28T02:32:42.370Z,33.50
2019-02-28T02:37:46.015Z,33.50
2019-02-28T02:42:50.167Z,33.50
2019-02-28T02:47:54.150Z,33.40
2019-02-28T02:53:05.066Z,33.50
2019-02-28T02:58:03.247Z,33.50
2019-02-28T03:03:07.834Z,33.50
2019-02-28T03:08:11.712Z,33.50
2019-02-28T03:13:15.423Z,33.40
2019-02-28T03:18:20.458Z,33.40
2019-02-28T03:23:24.799Z,33.50
2019-02-28T03:28:32.028Z,33.50
2019-02-28T03:33:33.853Z,33.50
2019-02-28T03:38:37.806Z,33.50
2019-02-28T03:43:43.931Z,34.10
2019-02-28T03:48:46.834Z,33.50
2019-02-28T03:53:55.651Z,33.60
2019-02-28T03:58:55.858Z,33.60
2019-02-28T04:03:59.493Z,33.60
2019-02-28T04:09:08.386Z,33.60
2019-02-28T04:14:10.350Z,33.60
2019-02-28T04:19:14.067Z,33.60
2019-02-28T04:24:17.680Z,33.60
2019-02-28T04:29:21.361Z,33.60
2019-02-28T04:34:25.084Z,33.50
2019-02-28T04:39:28.731Z,33.60
2019-02-28T04:44:32.380Z,33.60
2019-02-28T04:49:36.082Z,33.70
2019-02-28T04:54:39.749Z,33.60
2019-02-28T04:59:43.572Z,33.60
2019-02-28T05:04:47.244Z,33.70
2019-02-28T05:09:50.908Z,33.70
2019-02-28T05:14:55.286Z,33.80
2019-02-28T05:20:00.094Z,33.70
2019-02-28T05:25:04.000Z,33.70
2019-02-28T05:30:09.666Z,33.90
2019-02-28T05:35:13.493Z,33.80
2019-02-28T05:40:17.366Z,33.80
2019-02-28T05:45:21.210Z,34.00
2019-02-28T05:50:24.926Z,34.00
2019-02-28T05:55:28.593Z,34.30
2019-02-28T06:00:33.461Z,34.40
2019-02-28T06:05:38.954Z,34.40
2019-02-28T06:10:42.976Z,34.30
2019-02-28T06:15:46.702Z,34.50
2019-02-28T06:20:51.534Z,34.50
2019-02-28T06:25:59.339Z,34.60
2019-02-28T06:31:02.529Z,34.70
2019-02-28T06:36:06.542Z,34.70
2019-02-28T06:41:10.266Z,34.60
2019-02-28T06:46:13.972Z,34.60
2019-02-28T06:51:17.797Z,34.60
2019-02-28T06:56:22.627Z,34.60
2019-02-28T07:01:26.978Z,34.60
2019-02-28T07:06:35.732Z,34.60
2019-02-28T07:11:36.164Z,34.60
2019-02-28T07:16:39.987Z,34.50
2019-02-28T07:21:44.461Z,34.50
2019-02-28T07:26:48.367Z,34.50
2019-02-28T07:31:52.083Z,34.40
2019-02-28T07:36:55.801Z,34.30
2019-02-28T07:42:02.231Z,34.20
2019-02-28T07:47:05.060Z,34.10
2019-02-28T07:52:08.781Z,34.00
2019-02-28T07:57:16.935Z,34.00
2019-02-28T08:02:18.223Z,33.90
2019-02-28T08:07:23.426Z,34.00
2019-02-28T08:12:30.508Z,33.90
2019-02-28T08:17:32.735Z,33.90
2019-02-28T08:22:36.517Z,34.00
2019-02-28T08:27:40.247Z,34.00
2019-02-28T08:32:46.872Z,34.10
2019-02-28T08:37:55.735Z,34.00
2019-02-28T08:42:54.904Z,34.10
2019-02-28T08:47:58.539Z,34.10
2019-02-28T08:53:02.370Z,34.10
2019-02-28T08:58:06.777Z,34.10
2019-02-28T09:03:11.000Z,34.10
2019-02-28T09:08:14.727Z,34.00
2019-02-28T09:13:18.477Z,34.00
2019-02-28T09:18:22.142Z,34.00
2019-02-28T09:23:26.157Z,34.00
2019-02-28T09:28:29.881Z,34.00
2019-02-28T09:33:33.583Z,34.00
2019-02-28T09:38:37.665Z,34.60
2019-02-28T09:43:41.603Z,34.00
2019-02-28T09:48:45.377Z,34.10
2019-02-28T09:53:50.265Z,34.10
2019-02-28T09:58:54.527Z,34.20
2019-02-28T10:03:58.259Z,34.20
2019-02-28T10:09:01.956Z,34.20
2019-02-28T10:14:05.717Z,34.30
2019-02-28T10:19:10.196Z,34.20
2019-02-28T10:24:14.902Z,34.30
2019-02-28T10:29:18.609Z,34.30
2019-02-28T10:34:23.506Z,35.00
2019-02-28T10:39:27.662Z,34.50
2019-02-28T10:44:31.612Z,34.50
2019-02-28T10:49:35.798Z,34.50
2019-02-28T10:54:39.614Z,34.60
2019-02-28T10:59:43.389Z,34.60
2019-02-28T11:04:47.209Z,34.60
2019-02-28T11:09:50.864Z,34.70
2019-02-28T11:14:54.654Z,34.80
2019-02-28T11:19:58.450Z,34.80
2019-02-28T11:25:02.248Z,34.80
2019-02-28T11:30:07.389Z,34.80
2019-02-28T11:35:12.066Z,34.80
2019-02-28T11:40:16.662Z,34.90
2019-02-28T11:45:25.368Z,35.00
2019-02-28T11:50:27.513Z,35.00
2019-02-28T11:55:31.181Z,35.00
2019-02-28T12:00:35.848Z,35.10
2019-02-28T12:05:40.540Z,35.10
2019-02-28T12:10:44.212Z,35.10
2019-02-28T12:15:48.106Z,35.00
2019-02-28T12:20:52.013Z,35.00
2019-02-28T12:25:55.690Z,35.00
2019-02-28T12:31:00.265Z,35.00
2019-02-28T12:36:04.836Z,35.00
2019-02-28T12:41:08.593Z,35.10
2019-02-28T12:46:12.377Z,34.90
2019-02-28T12:51:16.065Z,34.90
2019-02-28T12:56:19.899Z,35.00
2019-02-28T13:01:23.588Z,34.90
2019-02-28T13:06:27.325Z,34.90
2019-02-28T13:11:31.158Z,34.90
2019-02-28T13:16:35.190Z,35.00
2019-02-28T13:21:43.620Z,34.90
2019-02-28T13:26:47.194Z,35.00
2019-02-28T13:31:51.030Z,34.90
2019-02-28T13:37:01.885Z,35.10
2019-02-28T13:42:03.252Z,34.90
2019-02-28T13:47:09.888Z,35.00
2019-02-28T13:52:18.879Z,35.00
2019-02-28T13:57:16.749Z,35.10
2019-02-28T14:02:21.573Z,34.90
2019-02-28T14:07:26.196Z,35.00
2019-02-28T14:12:31.016Z,35.00
2019-02-28T14:17:35.508Z,35.00
2019-02-28T14:22:52.428Z,34.90
2019-02-28T14:27:56.886Z,34.90
2019-02-28T14:33:03.745Z,34.90
2019-02-28T14:38:07.524Z,34.90
2019-02-28T14:43:11.203Z,34.90
2019-02-28T14:48:14.882Z,34.90
2019-02-28T14:53:18.661Z,34.80
2019-02-28T14:58:22.524Z,34.80
2019-02-28T15:03:26.649Z,34.80
2019-02-28T15:08:30.483Z,34.80
2019-02-28T15:13:34.345Z,34.80
2019-02-28T15:18:38.152Z,34.80
2019-02-28T15:23:41.921Z,34.80
2019-02-28T15:28:48.624Z,34.80
2019-02-28T15:33:52.745Z,34.80
2019-02-28T15:38:57.885Z,35.00
2019-02-28T15:44:01.548Z,35.00
2019-02-28T15:49:06.511Z,35.00
2019-02-28T15:54:10.914Z,35.10
2019-02-28T15:59:15.583Z,35.10
2019-02-28T16:04:19.599Z,35.10
2019-02-28T16:09:23.876Z,35.20
2019-02-28T16:14:27.624Z,35.30
2019-02-28T16:19:31.418Z,35.30
2019-02-28T16:24:36.815Z,35.40
2019-02-28T16:29:41.116Z,35.40
2019-02-28T16:34:44.887Z,35.50
2019-02-28T16:39:49.825Z,35.60
2019-02-28T16:44:53.936Z,35.60
2019-02-28T16:49:57.728Z,35.60
2019-02-28T16:55:20.791Z,35.60
2019-02-28T17:00:24.467Z,35.50
2019-02-28T17:05:31.827Z,35.60
2019-02-28T17:10:39.747Z,35.60
2019-02-28T17:16:05.172Z,35.70
2019-02-28T17:21:08.948Z,35.70
2019-02-28T17:26:13.002Z,35.70
2019-02-28T17:31:38.875Z,35.70
2019-02-28T17:36:44.156Z,35.80
2019-02-28T17:41:48.155Z,35.70
2019-02-28T17:46:52.879Z,35.70
2019-02-28T17:52:12.246Z,35.60
2019-02-28T17:57:52.262Z,35.60
2019-02-28T18:03:39.852Z,35.50
2019-02-28T18:09:12.727Z,35.40
2019-02-28T18:14:46.553Z,35.40
2019-02-28T18:20:15.680Z,35.20
2019-02-28T18:25:48.715Z,35.20
2019-02-28T18:31:06.443Z,35.70
2019-02-28T18:36:12.532Z,35.10
2019-02-28T18:41:17.916Z,35.10
2019-02-28T18:46:21.580Z,35.10
2019-02-28T18:51:25.334Z,35.00
2019-02-28T18:56:29.070Z,35.10
2019-02-28T19:01:33.925Z,35.00
2019-02-28T19:06:37.659Z,35.00
2019-02-28T19:11:41.352Z,35.00
2019-02-28T19:16:45.040Z,35.10
2019-02-28T19:21:48.714Z,35.10
2019-02-28T19:26:52.783Z,35.30
2019-02-28T19:31:58.463Z,35.60
2019-02-28T19:37:02.244Z,35.80
2019-02-28T19:42:06.122Z,36.00
2019-02-28T19:47:09.850Z,36.40
2019-02-28T19:52:13.529Z,36.60
2019-02-28T19:57:17.298Z,36.90
2019-02-28T20:02:21.081Z,37.10
2019-02-28T20:07:24.869Z,37.20
2019-02-28T20:12:28.610Z,37.30
2019-02-28T20:17:32.536Z,37.40
2019-02-28T20:22:36.768Z,37.40
2019-02-28T20:27:41.737Z,37.50
2019-02-28T20:32:45.491Z,37.50
2019-02-28T20:37:49.195Z,37.60
2019-02-28T20:42:54.664Z,37.50
2019-02-28T20:47:58.455Z,37.50
2019-02-28T20:53:10.038Z,37.50
2019-02-28T20:58:15.948Z,37.60
2019-02-28T21:03:23.929Z,37.60
2019-02-28T21:08:27.668Z,37.50
2019-02-28T21:13:31.416Z,37.50
2019-02-28T21:18:35.067Z,37.70
2019-02-28T21:23:38.760Z,37.70
2019-02-28T21:28:42.443Z,37.80
2019-02-28T21:33:46.390Z,37.80
2019-02-28T21:38:50.211Z,37.90
2019-02-28T21:43:53.979Z,37.80
2019-02-28T21:48:57.706Z,37.70
2019-02-28T21:54:01.342Z,37.70
2019-02-28T21:59:05.364Z,37.60
2019-02-28T22:04:09.098Z,37.50
2019-02-28T22:09:12.755Z,37.40
2019-02-28T22:14:16.513Z,37.40
2019-02-28T22:19:20.469Z,37.30
2019-02-28T22:24:26.549Z,37.20
2019-02-28T22:29:30.189Z,37.20
2019-02-28T22:34:42.487Z,37.10
2019-02-28T22:39:46.615Z,37.10
2019-02-28T22:44:50.322Z,37.20
2019-02-28T22:49:54.017Z,37.10
2019-02-28T22:54:57.671Z,37.00
2019-02-28T23:00:01.377Z,37.00
2019-02-28T23:05:05.278Z,37.00
2019-02-28T23:10:08.915Z,36.60
2019-02-28T23:15:12.656Z,36.90
2019-02-28T23:20:16.290Z,37.00
2019-02-28T23:25:19.969Z,36.90
2019-02-28T23:30:50.614Z,36.90
2019-02-28T23:35:54.402Z,36.90
2019-02-28T23:40:58.052Z,36.80
2019-02-28T23:46:02.051Z,36.70
2019-02-28T23:51:05.779Z,36.70
2019-02-28T23:56:09.460Z,36.70
